Time;durP1;ratioP1;P1;durP2;ratioP2;P2;SDS_P1;SDS_P2;PMS_P1;PMS_P2;Temp;Humidity;BMP_temperature;BMP_pressure;BME280_temperature;BME280_humidity;BME280_pressure;Samples;Min_cycle;Max_cycle;Signal;HPM_P1;HPM_P2
2021/04/14 00:00:31;;;;;;;;;45.00;36.00;;;;;10.27;46.54;99249.50;6230871;27;125965;-65
2021/04/14 00:03:34;;;;;;;;;40.40;34.00;;;;;10.30;46.35;99253.66;6227636;28;126288;-65
2021/04/14 00:06:37;;;;;;;;;45.00;37.00;;;;;10.28;46.56;99248.47;6228077;27;124027;-65
2021/04/14 00:09:40;;;;;;;;;39.60;34.00;;;;;10.29;46.40;99249.28;6229205;27;127617;-65
2021/04/14 00:12:42;;;;;;;;;42.00;35.00;;;;;10.26;46.46;99247.84;6229468;27;126466;-65
2021/04/14 00:15:48;;;;;;;;;45.00;36.67;;;;;10.26;46.38;99242.44;6219749;27;126297;-65
2021/04/14 00:18:51;;;;;;;;;37.60;32.00;;;;;10.29;46.38;99241.22;6215051;28;124590;-65
2021/04/14 00:21:53;;;;;;;;;39.00;33.00;;;;;10.27;46.42;99238.72;6222777;27;124293;-65
2021/04/14 00:24:56;;;;;;;;;37.20;32.20;;;;;10.28;46.49;99237.69;6211556;28;124155;-65
2021/04/14 00:27:59;;;;;;;;;38.25;32.50;;;;;10.28;46.52;99235.00;6186056;28;125078;-65
2021/04/14 00:31:03;;;;;;;;;45.00;36.00;;;;;10.27;46.46;99238.72;6186397;28;126509;-65
2021/04/14 00:34:07;;;;;;;;;39.00;33.20;;;;;10.23;46.36;99234.78;6209860;28;126400;-64
2021/04/14 00:37:09;;;;;;;;;39.00;32.00;;;;;10.24;46.68;99238.31;6208757;28;127531;-65
2021/04/14 00:40:14;;;;;;;;;37.40;33.00;;;;;10.22;46.72;99235.81;6210921;28;124715;-65
2021/04/14 00:43:19;;;;;;;;;40.25;33.00;;;;;10.23;46.60;99233.97;6194056;28;123670;-65
2021/04/14 00:46:27;;;;;;;;;39.00;33.00;;;;;10.26;46.59;99230.88;6210848;28;126278;-65
2021/04/14 00:49:30;;;;;;;;;38.80;33.00;;;;;10.30;46.39;99229.41;6211331;28;125752;-65
2021/04/14 00:52:32;;;;;;;;;38.60;32.60;;;;;10.26;46.44;99237.06;6209719;28;125173;-65
2021/04/14 00:55:36;;;;;;;;;42.60;35.00;;;;;10.28;46.52;99224.22;6209317;28;127433;-65
2021/04/14 00:58:39;;;;;;;;;38.20;32.00;;;;;10.31;46.46;99229.16;6211383;28;126151;-65
2021/04/14 01:01:42;;;;;;;;;38.00;33.00;;;;;10.29;46.45;99233.97;6210280;28;126436;-65
2021/04/14 01:04:44;;;;;;;;;37.75;33.00;;;;;10.24;46.40;99224.84;6192716;28;127350;-65
2021/04/14 01:07:48;;;;;;;;;35.00;30.00;;;;;10.20;46.45;99218.22;6168957;28;126456;-65
2021/04/14 01:10:51;;;;;;;;;34.60;31.60;;;;;10.23;46.55;99224.03;6186459;28;124854;-65
2021/04/14 01:13:53;;;;;;;;;37.00;32.00;;;;;10.25;46.79;99223.81;6186590;28;126234;-65
2021/04/14 01:16:56;;;;;;;;;40.40;33.00;;;;;10.29;46.49;99214.28;6203404;28;125945;-65
2021/04/14 01:19:58;;;;;;;;;38.40;34.00;;;;;10.32;46.49;99219.22;6209816;28;125728;-65
2021/04/14 01:23:02;;;;;;;;;36.60;32.00;;;;;10.32;46.47;99221.91;6190226;28;126872;-65
2021/04/14 01:26:04;;;;;;;;;39.40;33.00;;;;;10.30;46.52;99214.06;6186393;28;124014;-64
2021/04/14 01:29:07;;;;;;;;;41.33;34.00;;;;;10.30;46.41;99215.94;6190181;28;124846;-65
2021/04/14 01:32:09;;;;;;;;;38.40;33.40;;;;;10.28;46.67;99216.13;6193465;28;126387;-64
2021/04/14 01:35:13;;;;;;;;;34.75;30.00;;;;;10.25;46.73;99213.03;6186358;28;125197;-64
2021/04/14 01:38:16;;;;;;;;;35.20;31.60;;;;;10.24;46.61;99212.22;6183187;28;126118;-65
2021/04/14 01:41:19;;;;;;;;;39.00;33.00;;;;;10.25;46.69;99208.47;6193728;28;126823;-65
2021/04/14 01:44:21;;;;;;;;;36.00;31.25;;;;;10.25;46.71;99219.25;6209857;28;125374;-65
2021/04/14 01:47:32;;;;;;;;;35.50;32.00;;;;;10.24;46.78;99212.22;6209149;28;126510;-65
2021/04/14 01:50:34;;;;;;;;;36.00;31.00;;;;;10.24;46.76;99203.28;6209739;28;124849;-65
2021/04/14 01:53:38;;;;;;;;;39.00;33.00;;;;;10.26;46.63;99210.13;6195761;28;123311;-65
2021/04/14 01:56:41;;;;;;;;;36.00;31.00;;;;;10.30;46.62;99203.28;6200796;28;126054;-64
2021/04/14 01:59:44;;;;;;;;;38.80;33.00;;;;;10.30;46.41;99200.59;6194208;28;123647;-65
2021/04/14 02:02:48;;;;;;;;;39.00;33.00;;;;;10.32;46.49;99197.66;6196064;28;127676;-65
2021/04/14 02:05:51;;;;;;;;;40.40;32.40;;;;;10.22;46.38;99181.94;6208747;28;124840;-65
2021/04/14 02:08:54;;;;;;;;;39.00;32.00;;;;;10.30;46.62;99189.81;6208847;28;124809;-65
2021/04/14 02:11:56;;;;;;;;;37.00;32.00;;;;;10.32;46.47;99187.72;6208227;28;125405;-65
2021/04/14 02:14:58;;;;;;;;;34.50;30.00;;;;;10.30;46.32;99183.59;6208530;28;126489;-64
2021/04/14 02:18:01;;;;;;;;;39.00;33.00;;;;;10.21;46.58;99174.09;6206527;28;126539;-64
2021/04/14 02:21:04;;;;;;;;;37.80;31.80;;;;;10.16;46.64;99180.13;6197722;28;126677;-64
2021/04/14 02:24:08;;;;;;;;;40.20;32.20;;;;;10.32;46.39;99176.94;6183046;28;125321;-64
2021/04/14 02:27:10;;;;;;;;;40.00;33.00;;;;;10.12;46.39;99145.66;6192572;28;126789;-64
2021/04/14 02:30:16;;;;;;;;;36.40;31.80;;;;;10.26;46.47;99175.09;6206749;28;126460;-64
2021/04/14 02:33:19;;;;;;;;;40.60;34.00;;;;;10.25;46.61;99176.16;6191380;28;126687;-65
2021/04/14 02:36:21;;;;;;;;;36.40;32.60;;;;;10.28;46.56;99172.19;6185094;28;125908;-65
2021/04/14 02:39:24;;;;;;;;;38.20;32.80;;;;;10.26;46.63;99171.59;6208751;28;127432;-65
2021/04/14 02:42:27;;;;;;;;;40.00;33.00;;;;;10.28;46.54;99173.00;6208720;28;124072;-65
2021/04/14 02:45:31;;;;;;;;;38.80;33.60;;;;;10.26;46.61;99171.59;6209630;28;127463;-65
2021/04/14 02:48:33;;;;;;;;;41.25;33.50;;;;;10.22;46.68;99168.47;6208855;28;126893;-65
2021/04/14 02:51:35;;;;;;;;;45.50;35.25;;;;;10.19;46.81;99163.50;6200769;28;126439;-65
2021/04/14 02:54:38;;;;;;;;;38.50;33.50;;;;;10.06;46.89;99144.69;6184534;28;125446;-66
2021/04/14 02:57:40;;;;;;;;;42.00;33.00;;;;;10.22;46.72;99165.78;6182540;28;125183;-64
2021/04/14 03:00:42;;;;;;;;;39.25;32.75;;;;;10.24;46.72;99157.50;6182903;28;125149;-65
2021/04/14 03:03:45;;;;;;;;;38.25;32.75;;;;;10.24;46.68;99157.50;6184798;28;125178;-64
2021/04/14 03:06:47;;;;;;;;;35.00;31.50;;;;;10.26;46.66;99156.22;6200249;28;126976;-64
2021/04/14 03:09:50;;;;;;;;;40.40;32.40;;;;;10.24;46.76;99161.00;6185978;28;126500;-65
2021/04/14 03:12:52;;;;;;;;;42.00;34.00;;;;;10.26;46.75;99160.81;6185333;28;125063;-65
2021/04/14 03:15:54;;;;;;;;;40.80;33.00;;;;;10.29;46.66;99163.06;6185786;28;126514;-65
2021/04/14 03:18:56;;;;;;;;;33.60;29.60;;;;;9.75;46.59;99077.22;6185577;28;127198;-64
2021/04/14 03:21:58;;;;;;;;;39.60;33.00;;;;;10.26;46.68;99168.91;6185514;28;126135;-65
2021/04/14 03:25:02;;;;;;;;;40.20;33.00;;;;;10.25;46.70;99167.22;6186176;28;125184;-64
2021/04/14 03:28:06;;;;;;;;;37.00;32.00;;;;;10.27;46.66;99173.22;6195237;28;123947;-65
2021/04/14 03:31:08;;;;;;;;;37.60;33.00;;;;;10.23;46.96;99156.66;6200641;28;125839;-65
2021/04/14 03:34:11;;;;;;;;;35.80;31.60;;;;;10.21;46.75;99158.75;6185119;28;126347;-65
2021/04/14 03:37:13;;;;;;;;;35.40;31.40;;;;;10.20;46.65;99158.97;6182979;28;124997;-65
2021/04/14 03:40:17;;;;;;;;;34.00;32.00;;;;;10.20;46.56;99167.88;6184885;28;126003;-65
2021/04/14 03:43:20;;;;;;;;;37.50;32.50;;;;;10.20;46.84;99170.56;6184380;28;124287;-65
2021/04/14 03:46:23;;;;;;;;;39.40;33.00;;;;;10.21;46.90;99166.00;6205388;28;126217;-64
2021/04/14 03:49:26;;;;;;;;;38.60;33.00;;;;;10.19;46.81;99165.38;6210106;28;127329;-65
2021/04/14 03:52:28;;;;;;;;;35.00;32.60;;;;;10.21;46.86;99171.41;6198864;28;125347;-65
2021/04/14 03:55:31;;;;;;;;;36.20;32.20;;;;;10.20;46.82;99167.88;6185423;28;125863;-65
2021/04/14 03:58:54;;;;;;;;;38.40;32.80;;;;;10.22;46.84;99173.84;6183667;28;124547;-64
2021/04/14 04:02:00;;;;;;;;;37.40;33.00;;;;;10.02;46.95;99143.41;6218378;28;124412;-65
2021/04/14 04:05:02;;;;;;;;;36.00;32.00;;;;;10.17;47.03;99176.34;6212953;28;126267;-65
2021/04/14 04:08:05;;;;;;;;;44.00;35.00;;;;;10.17;46.91;99172.84;6213660;28;127582;-65
2021/04/14 04:11:08;;;;;;;;;35.60;31.60;;;;;10.11;47.08;99173.66;6200301;28;126281;-65
2021/04/14 04:14:11;;;;;;;;;37.00;32.40;;;;;10.05;46.89;99166.44;6188618;28;126567;-65
2021/04/14 04:17:13;;;;;;;;;34.00;31.00;;;;;10.16;47.07;99182.81;6188199;28;126399;-65
2021/04/14 04:20:15;;;;;;;;;36.00;32.00;;;;;10.16;46.92;99181.97;6194491;28;125579;-65
2021/04/14 04:23:17;;;;;;;;;36.25;32.00;;;;;10.18;46.97;99177.19;6214254;28;126208;-65
2021/04/14 04:26:21;;;;;;;;;34.40;31.00;;;;;10.12;46.68;99175.31;6214428;28;126753;-65
2021/04/14 04:29:23;;;;;;;;;32.75;30.00;;;;;10.23;46.90;99185.47;6193378;28;126204;-65
2021/04/14 04:32:25;;;;;;;;;34.80;30.00;;;;;10.29;46.67;99184.63;6196137;28;125575;-65
2021/04/14 04:35:30;;;;;;;;;31.40;27.40;;;;;10.26;46.67;99193.16;6211887;28;125701;-65
2021/04/14 04:38:34;;;;;;;;;42.00;32.00;;;;;10.26;46.75;99193.16;6189047;28;126192;-65
2021/04/14 04:41:37;;;;;;;;;35.00;30.00;;;;;10.24;46.78;99203.28;6192866;28;125294;-65
2021/04/14 04:44:39;;;;;;;;;32.60;30.00;;;;;10.23;46.96;99198.94;6189010;28;126165;-65
2021/04/14 04:47:41;;;;;;;;;32.00;29.00;;;;;10.18;47.12;99198.75;6189044;28;124997;-65
2021/04/14 04:50:44;;;;;;;;;32.00;30.00;;;;;10.22;46.90;99200.81;6187486;28;126679;-65
2021/04/14 04:53:46;;;;;;;;;30.80;28.00;;;;;10.25;46.91;99200.41;6171530;28;124205;-65
2021/04/14 04:56:49;;;;;;;;;30.00;28.75;;;;;10.30;46.74;99202.47;6203639;28;126476;-65
2021/04/14 04:59:52;;;;;;;;;34.75;28.75;;;;;10.29;46.79;99207.00;6196917;28;124279;-65
2021/04/14 05:02:55;;;;;;;;;34.00;28.00;;;;;10.33;46.79;99204.72;6205819;28;125128;-64
2021/04/14 05:06:00;;;;;;;;;26.00;25.00;;;;;10.30;46.97;99197.06;6191232;28;123764;-65
2021/04/14 05:09:09;;;;;;;;;27.60;26.40;;;;;10.35;46.69;99214.25;6194246;28;127040;-65
2021/04/14 05:12:12;;;;;;;;;27.00;24.00;;;;;10.36;46.58;99205.09;6202135;28;127189;-65
2021/04/14 05:15:15;;;;;;;;;30.60;26.60;;;;;10.41;46.63;99209.84;6187381;28;126270;-65
2021/04/14 05:18:17;;;;;;;;;24.50;23.75;;;;;10.40;46.74;99211.75;6187809;28;126455;-65
2021/04/14 05:21:21;;;;;;;;;27.40;26.00;;;;;10.40;46.55;99209.06;6188891;28;128142;-65
2021/04/14 05:24:23;;;;;;;;;26.00;24.00;;;;;10.40;46.64;99214.44;6190674;28;127227;-65
2021/04/14 05:27:30;;;;;;;;;28.50;25.75;;;;;10.44;46.49;99217.53;6210005;28;126267;-65
2021/04/14 05:30:33;;;;;;;;;29.20;27.20;;;;;10.48;46.56;99216.06;6205066;28;126169;-65
2021/04/14 05:33:39;;;;;;;;;29.00;25.80;;;;;10.46;46.68;99214.63;6212503;28;125001;-65
2021/04/14 05:36:42;;;;;;;;;25.00;24.60;;;;;10.47;46.43;99219.78;6211411;28;124869;-65
2021/04/14 05:39:45;;;;;;;;;26.40;23.80;;;;;10.45;46.40;99221.06;6211395;28;125157;-65
2021/04/14 05:42:48;;;;;;;;;23.80;22.80;;;;;10.48;46.22;99220.63;6190031;28;125237;-65
2021/04/14 05:45:59;;;;;;;;;24.20;23.20;;;;;10.50;46.41;99222.09;6195939;28;124505;-65
2021/04/14 05:49:01;;;;;;;;;26.00;24.67;;;;;10.52;46.47;99224.56;6196320;28;125386;-65
2021/04/14 05:52:10;;;;;;;;;25.80;23.60;;;;;10.56;46.35;99220.38;6189850;28;127664;-65
2021/04/14 05:55:20;;;;;;;;;24.00;23.00;;;;;10.56;46.23;99223.06;6186686;28;126748;-65
2021/04/14 05:58:23;;;;;;;;;26.00;23.00;;;;;10.57;46.08;99220.19;6197341;28;124783;-65
2021/04/14 06:01:30;;;;;;;;;26.00;24.50;;;;;10.61;46.17;99228.66;6205198;28;126002;-65
2021/04/14 06:04:42;;;;;;;;;30.00;26.60;;;;;10.49;45.91;99216.91;6200006;28;127165;-65
2021/04/14 06:07:44;;;;;;;;;25.00;23.40;;;;;10.65;45.90;99233.41;6207294;28;127825;-64
2021/04/14 06:10:47;;;;;;;;;26.00;23.00;;;;;10.42;45.90;99187.25;6209134;28;126673;-64
2021/04/14 06:14:06;;;;;;;;;22.60;20.60;;;;;10.69;45.96;99239.22;6194213;28;127135;-64
2021/04/14 06:17:08;;;;;;;;;23.00;21.40;;;;;10.74;45.90;99239.41;6210628;28;127000;-64
2021/04/14 06:20:14;;;;;;;;;21.50;20.50;;;;;10.67;45.70;99228.63;6200304;28;124719;-65
2021/04/14 06:23:18;;;;;;;;;23.00;21.00;;;;;10.82;45.66;99239.97;6206106;28;124760;-65
2021/04/14 06:26:29;;;;;;;;;21.00;19.00;;;;;10.83;45.54;99240.81;6192354;28;124883;-65
2021/04/14 06:29:33;;;;;;;;;22.00;21.00;;;;;10.57;45.56;99187.00;6205568;28;124084;-65
2021/04/14 06:32:35;;;;;;;;;20.00;17.80;;;;;10.86;45.52;99229.59;6209962;28;126807;-64
2021/04/14 06:35:38;;;;;;;;;21.80;20.40;;;;;10.84;45.65;99237.91;6198253;28;127095;-64
2021/04/14 06:38:42;;;;;;;;;21.60;19.60;;;;;10.90;45.71;99238.09;6200850;28;127296;-65
2021/04/14 06:42:08;;;;;;;;;21.00;18.60;;;;;11.01;45.31;99238.22;6211407;28;124710;-64
2021/04/14 06:45:18;;;;;;;;;19.00;18.20;;;;;11.01;45.43;99237.41;6210239;28;125138;-64
2021/04/14 06:48:32;;;;;;;;;18.00;16.60;;;;;11.04;45.22;99237.81;6209130;28;125017;-65
2021/04/14 06:51:42;;;;;;;;;22.50;20.50;;;;;11.11;45.33;99238.59;6205499;28;125989;-64
2021/04/14 06:54:51;;;;;;;;;20.00;17.75;;;;;11.17;45.13;99242.28;6199530;28;125952;-65
2021/04/14 06:57:57;;;;;;;;;16.00;15.00;;;;;11.19;44.89;99219.44;6202091;28;124714;-64
2021/04/14 07:01:03;;;;;;;;;15.33;14.00;;;;;11.29;44.88;99227.88;6196275;28;125986;-64
2021/04/14 07:04:09;;;;;;;;;15.00;13.00;;;;;11.39;44.52;99229.25;6209495;28;125180;-64
2021/04/14 07:07:19;;;;;;;;;13.75;13.00;;;;;11.41;44.54;99235.28;6209941;28;124992;-64
2021/04/14 07:10:25;;;;;;;;;12.00;11.20;;;;;11.41;44.56;99235.28;6208977;28;127789;-65
2021/04/14 07:13:30;;;;;;;;;13.00;12.00;;;;;11.44;44.36;99229.44;6209577;28;125765;-64
2021/04/14 07:17:00;;;;;;;;;14.00;13.25;;;;;11.49;44.16;99232.31;6209129;28;125273;-64
2021/04/14 07:20:16;;;;;;;;;18.00;16.00;;;;;11.38;44.40;99209.56;6204326;28;124865;-65
2021/04/14 07:23:29;;;;;;;;;16.00;16.00;;;;;11.52;44.27;99240.81;6209174;28;125004;-66
2021/04/14 07:26:39;;;;;;;;;17.00;16.20;;;;;11.56;44.21;99235.78;6199691;28;124725;-65
2021/04/14 07:29:49;;;;;;;;;15.50;14.50;;;;;11.54;44.29;99237.88;6208361;28;124651;-65
2021/04/14 07:33:10;;;;;;;;;14.00;13.00;;;;;11.48;44.35;99242.31;6208721;28;126049;-65
2021/04/14 07:36:18;;;;;;;;;15.00;14.20;;;;;11.50;44.30;99250.16;6199666;28;126253;-65
2021/04/14 07:39:30;;;;;;;;;16.00;15.00;;;;;11.58;44.44;99249.91;6213504;28;124416;-66
2021/04/14 07:42:41;;;;;;;;;14.00;13.50;;;;;11.60;44.22;99245.09;6212170;28;124966;-65
2021/04/14 07:45:43;;;;;;;;;17.00;15.00;;;;;11.66;44.33;99246.94;6211356;28;124773;-66
2021/04/14 07:48:50;;;;;;;;;11.20;11.20;;;;;11.72;43.92;99248.75;6206594;28;128038;-66
2021/04/14 07:51:53;;;;;;;;;16.00;14.00;;;;;11.67;43.68;99252.13;6214166;28;127089;-65
2021/04/14 07:54:56;;;;;;;;;14.00;13.00;;;;;11.73;43.93;99263.13;6207784;28;127070;-66
2021/04/14 07:58:08;;;;;;;;;13.40;11.40;;;;;11.69;44.15;99257.28;6213863;28;124573;-66
2021/04/14 08:01:13;;;;;;;;;14.60;13.00;;;;;11.74;43.94;99252.09;6209005;28;124950;-65
2021/04/14 08:04:24;;;;;;;;;12.00;12.00;;;;;11.76;43.77;99258.09;6213664;28;126118;-64
2021/04/14 08:07:35;;;;;;;;;13.00;12.00;;;;;11.82;43.53;99254.53;6209194;28;124996;-65
2021/04/14 08:10:38;;;;;;;;;8.00;7.25;;;;;11.92;43.42;99257.56;6197604;28;124214;-64
2021/04/14 08:13:47;;;;;;;;;9.00;9.00;;;;;11.89;43.21;99254.47;6209898;28;125762;-65
2021/04/14 08:16:53;;;;;;;;;12.00;12.00;;;;;11.87;43.26;99249.28;6211318;28;125330;-64
2021/04/14 08:20:00;;;;;;;;;9.60;9.60;;;;;11.96;42.90;99261.47;6196545;28;126643;-65
2021/04/14 08:23:08;;;;;;;;;8.60;8.00;;;;;12.02;43.19;99257.84;6210889;28;124788;-65
2021/04/14 08:26:16;;;;;;;;;8.00;8.00;;;;;11.98;43.22;99262.06;6213210;28;124806;-66
2021/04/14 08:29:19;;;;;;;;;6.00;6.00;;;;;11.95;42.95;99261.69;6189007;28;124261;-66
2021/04/14 08:32:27;;;;;;;;;8.00;8.00;;;;;11.85;42.96;99259.47;6210005;28;123932;-66
2021/04/14 08:35:33;;;;;;;;;5.80;5.20;;;;;11.88;43.19;99261.72;6211680;28;126015;-66
2021/04/14 08:38:35;;;;;;;;;5.00;5.00;;;;;11.91;42.77;99264.00;6210256;28;125224;-66
2021/04/14 08:41:38;;;;;;;;;7.00;6.00;;;;;11.83;42.79;99256.16;6212434;28;126837;-65
2021/04/14 08:44:43;;;;;;;;;9.25;9.00;;;;;11.87;43.85;99270.91;6212358;28;126816;-65
2021/04/14 08:47:51;;;;;;;;;8.00;7.00;;;;;11.86;43.86;99258.44;6212371;28;125815;-64
2021/04/14 08:51:03;;;;;;;;;7.00;7.00;;;;;11.83;43.32;99255.34;6211747;28;127248;-65
2021/04/14 08:54:07;;;;;;;;;8.00;8.00;;;;;11.73;43.59;99228.03;6211199;28;124820;-64
2021/04/14 08:57:10;;;;;;;;;7.00;7.00;;;;;11.96;43.48;99249.84;6210611;28;125105;-65
2021/04/14 09:00:13;;;;;;;;;5.00;5.00;;;;;11.82;42.86;99226.69;6211539;28;125243;-65
2021/04/14 09:03:20;;;;;;;;;7.00;6.00;;;;;12.08;42.79;99251.56;6201406;28;126260;-66
2021/04/14 09:06:25;;;;;;;;;4.50;4.50;;;;;12.14;42.91;99248.00;6212732;28;125692;-64
2021/04/14 09:09:31;;;;;;;;;8.00;6.40;;;;;12.17;42.31;99251.31;6212375;28;126105;-65
2021/04/14 09:12:37;;;;;;;;;5.80;5.00;;;;;12.07;43.02;99246.41;6222010;28;123984;-66
2021/04/14 09:15:54;;;;;;;;;6.00;6.00;;;;;11.70;42.88;99218.44;6211325;28;125932;-66
2021/04/14 09:19:07;;;;;;;;;4.80;4.80;;;;;11.81;42.40;99254.75;6203534;28;126050;-66
2021/04/14 09:22:21;;;;;;;;;4.75;4.75;;;;;11.67;43.11;99254.81;6212446;28;126633;-65
2021/04/14 09:25:30;;;;;;;;;5.40;5.00;;;;;11.50;43.38;99251.00;6212863;28;124216;-65
2021/04/14 09:28:37;;;;;;;;;5.00;5.00;;;;;11.51;43.71;99251.81;6210229;28;126221;-63
2021/04/14 09:31:48;;;;;;;;;5.00;5.00;;;;;11.61;43.86;99247.59;6206550;28;124970;-66
2021/04/14 09:34:52;;;;;;;;;6.75;6.00;;;;;11.73;43.87;99241.53;6212521;28;127228;-66
2021/04/14 09:38:07;;;;;;;;;6.00;5.00;;;;;11.88;43.41;99247.38;6182708;28;126567;-66
2021/04/14 09:41:16;;;;;;;;;6.00;6.00;;;;;11.87;43.48;99246.59;6206976;28;124933;-66
2021/04/14 09:44:34;;;;;;;;;7.00;6.60;;;;;12.01;43.37;99241.88;6212148;28;123797;-63
2021/04/14 09:47:38;;;;;;;;;7.00;7.00;;;;;12.15;43.38;99238.00;6210390;28;125754;-64
2021/04/14 09:50:43;;;;;;;;;6.00;6.00;;;;;12.15;43.03;99243.41;6209476;28;126050;-64
2021/04/14 09:53:48;;;;;;;;;5.50;5.50;;;;;12.25;42.63;99246.44;6207106;28;125913;-65
2021/04/14 09:56:53;;;;;;;;;7.50;6.50;;;;;12.15;42.35;99246.13;6209094;28;124429;-65
2021/04/14 10:00:06;;;;;;;;;4.25;4.25;;;;;12.00;42.13;99237.53;6202683;28;127737;-65
2021/04/14 10:03:16;;;;;;;;;6.00;6.00;;;;;11.98;42.55;99220.69;6210263;28;124664;-64
2021/04/14 10:06:25;;;;;;;;;6.00;4.00;;;;;12.21;41.98;99236.28;6209694;28;127779;-65
2021/04/14 10:09:40;;;;;;;;;6.00;5.00;;;;;12.28;42.18;99240.56;6209258;28;126136;-65
2021/04/14 10:12:43;;;;;;;;;6.00;6.00;;;;;12.19;41.84;99239.22;6200409;28;126754;-65
2021/04/14 10:15:47;;;;;;;;;6.00;6.00;;;;;12.15;41.38;99238.84;6224523;28;125612;-65
2021/04/14 10:19:00;;;;;;;;;5.00;5.00;;;;;12.23;41.84;99236.88;6209070;28;124493;-66
2021/04/14 10:22:08;;;;;;;;;6.00;6.00;;;;;12.30;41.20;99232.25;6200289;28;125734;-65
2021/04/14 10:25:20;;;;;;;;;6.00;5.00;;;;;12.30;40.85;99234.94;6206101;28;125968;-66
2021/04/14 10:28:26;;;;;;;;;5.20;5.20;;;;;12.23;41.47;99229.59;6202917;28;126276;-66
2021/04/14 10:31:30;;;;;;;;;7.00;6.00;;;;;12.24;42.47;99230.44;6198716;28;124882;-66
2021/04/14 10:34:36;;;;;;;;;6.00;6.00;;;;;12.20;41.44;99231.94;6209371;28;124819;-65
2021/04/14 10:37:42;;;;;;;;;5.20;5.00;;;;;12.37;41.65;99222.16;6209477;28;125876;-65
2021/04/14 10:40:47;;;;;;;;;6.00;6.00;;;;;12.36;41.25;99225.94;6210038;28;125639;-65
2021/04/14 10:43:51;;;;;;;;;5.40;5.40;;;;;12.32;40.64;99211.19;6205583;28;126389;-65
2021/04/14 10:47:02;;;;;;;;;7.00;7.00;;;;;12.61;41.10;99212.34;6203147;28;126147;-66
2021/04/14 10:50:07;;;;;;;;;7.00;6.00;;;;;12.65;40.18;99216.25;6200318;28;123954;-66
2021/04/14 10:53:11;;;;;;;;;7.00;6.75;;;;;12.69;40.28;99212.03;6203218;28;127610;-65
2021/04/14 10:56:17;;;;;;;;;6.80;6.80;;;;;12.58;40.32;99195.50;6209481;28;126881;-65
2021/04/14 10:59:23;;;;;;;;;6.00;6.00;;;;;12.54;39.58;99207.00;6206128;28;126096;-66
2021/04/14 11:02:28;;;;;;;;;5.00;5.00;;;;;12.67;39.64;99214.94;6196354;28;124904;-66
2021/04/14 11:05:32;;;;;;;;;6.00;6.00;;;;;12.62;39.99;99212.09;6210042;28;124743;-66
2021/04/14 11:08:35;;;;;;;;;7.20;7.20;;;;;12.58;40.51;99213.59;6196852;28;125151;-66
2021/04/14 11:11:40;;;;;;;;;6.00;6.00;;;;;12.40;39.77;99219.84;6206473;28;127321;-66
2021/04/14 11:14:46;;;;;;;;;6.20;6.20;;;;;12.49;40.20;99209.56;6207694;28;124972;-65
2021/04/14 11:17:55;;;;;;;;;6.80;6.80;;;;;12.39;40.14;99212.78;6208628;28;126382;-65
2021/04/14 11:21:06;;;;;;;;;6.60;6.60;;;;;12.29;40.15;99215.19;6193448;28;123769;-65
2021/04/14 11:24:11;;;;;;;;;5.25;5.00;;;;;11.91;39.64;99180.25;6206872;28;124018;-65
2021/04/14 11:27:18;;;;;;;;;6.25;5.25;;;;;12.00;40.13;99211.34;6209577;28;124404;-66
2021/04/14 11:30:22;;;;;;;;;7.00;6.00;;;;;11.90;41.00;99204.78;6214445;28;126163;-66
2021/04/14 11:33:34;;;;;;;;;5.80;5.80;;;;;11.91;40.84;99204.56;6209637;28;124740;-66
2021/04/14 11:36:38;;;;;;;;;8.00;8.00;;;;;11.94;41.15;99204.13;6211562;28;124701;-65
2021/04/14 11:39:52;;;;;;;;;8.00;8.00;;;;;12.06;40.82;99204.22;6206096;28;125033;-65
2021/04/14 11:43:23;;;;;;;;;7.80;7.80;;;;;12.17;41.25;99208.88;6205149;28;124634;-65
2021/04/14 11:46:33;;;;;;;;;8.00;8.00;;;;;12.24;41.51;99211.50;6195593;28;125054;-65
2021/04/14 11:49:37;;;;;;;;;7.00;7.00;;;;;12.39;41.74;99204.69;6202907;28;127562;-65
2021/04/14 11:52:49;;;;;;;;;10.00;9.00;;;;;12.50;41.02;99201.22;6200892;28;127369;-65
2021/04/14 11:55:52;;;;;;;;;8.40;7.40;;;;;12.58;40.91;99208.19;6207673;28;124934;-65
2021/04/14 11:59:00;;;;;;;;;7.00;7.00;;;;;12.67;41.10;99198.72;6200675;28;126793;-67
2021/04/14 12:02:18;;;;;;;;;7.40;7.40;;;;;12.75;40.32;99200.31;6197229;28;125026;-66
2021/04/14 12:05:21;;;;;;;;;10.00;9.00;;;;;12.80;39.46;99195.84;6197635;28;124297;-66
2021/04/14 12:08:25;;;;;;;;;9.80;8.80;;;;;12.87;39.85;99193.03;6206781;28;123713;-66
2021/04/14 12:11:28;;;;;;;;;11.00;10.40;;;;;12.93;39.55;99190.25;6207267;28;124034;-65
2021/04/14 12:14:32;;;;;;;;;11.00;11.00;;;;;12.95;39.56;99190.84;6199198;28;128219;-64
2021/04/14 12:17:34;;;;;;;;;11.50;10.00;;;;;12.89;39.59;99167.44;6192675;28;124288;-68
2021/04/14 12:20:36;;;;;;;;;12.00;11.60;;;;;13.03;38.82;99190.53;6200744;28;124639;-65
2021/04/14 12:23:48;;;;;;;;;13.00;13.00;;;;;13.27;39.11;99198.75;6212027;28;126986;-66
2021/04/14 12:27:02;;;;;;;;;14.60;13.00;;;;;13.35;38.80;99179.44;6212759;28;125989;-65
2021/04/14 12:30:07;;;;;;;;;12.00;11.50;;;;;13.36;38.08;99184.66;6211895;28;127461;-65
2021/04/14 12:33:29;;;;;;;;;13.80;13.20;;;;;13.44;37.54;99180.75;6211145;28;124530;-65
2021/04/14 12:36:32;;;;;;;;;14.33;12.33;;;;;13.55;37.39;99182.69;6212904;28;125179;-65
2021/04/14 12:39:34;;;;;;;;;14.00;13.00;;;;;13.56;37.52;99170.78;6209256;28;125287;-67
2021/04/14 12:43:00;;;;;;;;;15.00;14.00;;;;;13.59;37.89;99172.19;6212128;28;124370;-65
2021/04/14 12:46:04;;;;;;;;;16.60;14.60;;;;;13.43;37.39;99165.59;6188939;28;124966;-64
2021/04/14 12:49:17;;;;;;;;;14.60;14.20;;;;;13.32;38.21;99174.50;6205533;28;125005;-64
2021/04/14 12:52:22;;;;;;;;;14.00;13.00;;;;;13.24;38.07;99172.16;6200589;28;125994;-64
2021/04/14 12:55:30;;;;;;;;;14.00;12.00;;;;;13.23;38.09;99176.75;6204321;28;124486;-65
2021/04/14 12:58:36;;;;;;;;;15.00;13.80;;;;;13.19;38.80;99183.69;6201012;28;125881;-65
2021/04/14 13:01:41;;;;;;;;;14.00;13.00;;;;;13.19;38.95;99177.44;6209132;28;128399;-65
2021/04/14 13:04:51;;;;;;;;;13.00;11.20;;;;;13.19;38.81;99167.44;6206803;28;125069;-65
2021/04/14 13:07:58;;;;;;;;;11.20;10.00;;;;;13.13;39.23;99172.94;6208032;28;124802;-65
2021/04/14 13:11:05;;;;;;;;;10.80;9.80;;;;;13.16;38.77;99164.34;6202557;28;123628;-65
2021/04/14 13:14:23;;;;;;;;;12.00;10.40;;;;;13.13;38.85;99164.81;6208889;28;124819;-65
2021/04/14 13:17:30;;;;;;;;;10.00;8.60;;;;;13.19;39.46;99163.91;6209506;28;127354;-66
2021/04/14 13:20:33;;;;;;;;;10.00;10.00;;;;;13.21;38.68;99164.47;6206696;28;126590;-66
2021/04/14 13:23:44;;;;;;;;;7.00;7.00;;;;;13.34;38.36;99164.28;6200036;28;124722;-65
2021/04/14 13:27:14;;;;;;;;;10.60;9.40;;;;;13.44;38.34;99162.63;6205610;28;125981;-65
2021/04/14 13:30:22;;;;;;;;;10.60;10.00;;;;;13.36;37.77;99165.69;6202585;28;125964;-65
2021/04/14 13:33:33;;;;;;;;;12.00;11.00;;;;;13.49;37.72;99156.50;6205323;28;126302;-66
2021/04/14 13:36:42;;;;;;;;;11.40;10.00;;;;;13.28;38.25;99136.25;6200255;28;128320;-65
2021/04/14 13:39:48;;;;;;;;;9.00;8.00;;;;;13.26;37.93;99160.00;6205820;28;125829;-65
2021/04/14 13:42:54;;;;;;;;;10.75;10.00;;;;;13.24;37.95;99153.19;6202420;28;124703;-65
2021/04/14 13:46:02;;;;;;;;;10.00;10.00;;;;;13.17;38.38;99149.75;6199234;28;127026;-64
2021/04/14 13:49:11;;;;;;;;;10.00;9.00;;;;;12.76;38.10;99123.47;6198235;28;124384;-64
2021/04/14 13:52:20;;;;;;;;;8.40;8.40;;;;;13.01;38.61;99153.91;6208232;28;126011;-64
2021/04/14 13:55:23;;;;;;;;;8.50;8.50;;;;;12.95;39.47;99154.84;6210236;28;124177;-65
2021/04/14 13:58:43;;;;;;;;;10.00;9.40;;;;;12.89;39.25;99159.31;6207197;28;126035;-65
2021/04/14 14:01:52;;;;;;;;;11.00;10.40;;;;;12.81;39.48;99132.56;6202375;28;127153;-65
2021/04/14 14:04:56;;;;;;;;;7.25;7.00;;;;;12.96;39.02;99154.59;6206399;28;124741;-65
2021/04/14 14:08:08;;;;;;;;;9.60;9.60;;;;;12.86;39.35;99129.16;6209249;28;126064;-65
2021/04/14 14:11:17;;;;;;;;;8.00;8.00;;;;;12.99;38.94;99148.75;6209168;28;126038;-64